»·PEaware :: N825TJ KBFI-KBOI

N825TJ :: KBFI-KBOI

FLIGHT INFORMATION

Flight Status: Arrived
Operator: Privately registered:
United States
More flights under this callsign
Pilot: Tyler J. (19619)
Aircraft: CESSNA 525A CITATION CJ2
(C25A)
More flights by this aircraft type
Origin: KBFI Boeing Field/King Co Intl
United States
Destination: KBOI Boise Air Terminal/Gowen
United States
More flights between these airports :: More routes between these airports
Route: +NRVNA1 TAOMA J5 SUMMA J54 BKE DEVLE KYAAN3
File this flight plan on PilotEdge
Remarks:
Altitude:
(Current/Filed)
33,000ft
Speed:
(Current/Filed)
430kts
Departed: 28-Aug-18 10:08 AM
Arrived: 28-Aug-18 11:10 AM
Distance/Time
Traveled:
348nm/1:02
Distance/Time
To Go:
Arrived

Flight Plot

Page will automatically refresh every two minutes.

Flight plan parsing failed; only flown route is shown


Map Options




Map Legend


Flown Route
Filed Route
Departure Airport
Arrival Airport
Navaid (VOR, NDB)
Fix

Horizontal Profiles

Position Reports

Time Latitude Longitude Heading Altitude Ground
Speed
28-Aug-18 09:52 47.530223 -122.298184 170 22ft 0kts
28-Aug-18 09:53 47.530223 -122.298184 170 22ft 0kts
28-Aug-18 09:54 47.530223 -122.298184 170 22ft 0kts
28-Aug-18 09:55 47.530223 -122.298184 170 22ft 0kts
28-Aug-18 09:56 47.530223 -122.298184 170 22ft 0kts
28-Aug-18 09:57 47.530223 -122.298184 170 22ft 0kts
28-Aug-18 09:58 47.530223 -122.298184 170 22ft 0kts
28-Aug-18 09:59 47.530223 -122.298184 170 22ft 0kts
28-Aug-18 10:00 47.530223 -122.298184 170 22ft 0kts
28-Aug-18 10:01 47.530221 -122.298183 170 22ft 0kts
28-Aug-18 10:02 47.530218 -122.298183 170 22ft 0kts
28-Aug-18 10:03 47.529984 -122.298402 220 22ft 0kts
28-Aug-18 10:04 47.529757 -122.299572 294 22ft 14kts
28-Aug-18 10:05 47.533605 -122.302815 331 22ft 14kts
28-Aug-18 10:06 47.537390 -122.306224 332 22ft 17kts
28-Aug-18 10:07 47.540360 -122.308645 329 22ft 10kts
28-Aug-18 10:08 47.540785 -122.310510 234 22ft 0kts
28-Aug-18 10:09 47.538040 -122.309564 150 22ft 78kts
28-Aug-18 10:10 47.492156 -122.272143 152 1792ft 250kts
28-Aug-18 10:11 47.432754 -122.225940 152 2459ft 231kts
28-Aug-18 10:12 47.374198 -122.180736 152 4610ft 245kts
28-Aug-18 10:13 47.308239 -122.147761 174 7028ft 258kts
28-Aug-18 10:14 47.234061 -122.139098 176 8008ft 277kts
28-Aug-18 10:15 47.157415 -122.130977 176 10536ft 288kts
28-Aug-18 10:16 47.074919 -122.122237 176 14098ft 305kts
28-Aug-18 10:17 46.985877 -122.112923 177 14999ft 358kts
28-Aug-18 10:18 46.886466 -122.091336 167 14999ft 361kts
28-Aug-18 10:19 46.789122 -122.055375 165 14998ft 356kts
28-Aug-18 10:20 46.693638 -122.017837 165 17891ft 364kts
28-Aug-18 10:21 46.604564 -121.947812 128 20925ft 380kts
28-Aug-18 10:22 46.547252 -121.816406 116 23713ft 393kts
28-Aug-18 10:23 46.493476 -121.674695 116 26020ft 407kts
28-Aug-18 10:24 46.437337 -121.533119 117 28203ft 408kts
28-Aug-18 10:25 46.379491 -121.389372 116 29708ft 414kts
28-Aug-18 10:26 46.320914 -121.244487 116 30798ft 421kts
28-Aug-18 10:27 46.261308 -121.097720 116 31648ft 425kts
28-Aug-18 10:28 46.200934 -120.949831 116 32324ft 428kts
28-Aug-18 10:29 46.150329 -120.826474 116 32760ft 429kts
28-Aug-18 10:30 46.078856 -120.653100 116 33175ft 433kts
28-Aug-18 10:31 46.016833 -120.503453 116 33179ft 439kts
28-Aug-18 10:32 45.966172 -120.381869 116 33179ft 441kts
28-Aug-18 10:33 45.892376 -120.205786 117 33179ft 442kts
28-Aug-18 10:34 45.839174 -120.079473 117 33180ft 445kts
28-Aug-18 10:35 45.764157 -119.902383 117 33179ft 446kts
28-Aug-18 10:36 45.710291 -119.775898 117 33179ft 446kts
28-Aug-18 10:37 45.645392 -119.624217 117 33184ft 447kts
28-Aug-18 10:38 45.580336 -119.473002 117 33186ft 447kts
28-Aug-18 10:39 45.514723 -119.321311 117 33188ft 447kts
28-Aug-18 10:40 45.449188 -119.170592 117 33196ft 447kts
28-Aug-18 10:41 45.383522 -119.020369 118 33197ft 447kts
28-Aug-18 10:42 45.317557 -118.870257 118 33204ft 448kts
28-Aug-18 10:43 45.251370 -118.720436 118 33210ft 448kts
28-Aug-18 10:44 45.184533 -118.569866 118 33098ft 454kts
28-Aug-18 10:45 45.116754 -118.417982 119 32731ft 459kts
28-Aug-18 10:46 45.051400 -118.272536 119 31715ft 427kts
28-Aug-18 10:47 44.988405 -118.133542 119 30376ft 419kts
28-Aug-18 10:48 44.925377 -117.994487 120 28746ft 420kts
28-Aug-18 10:49 44.861857 -117.854948 121 26859ft 424kts
28-Aug-18 10:50 44.773017 -117.743591 145 25495ft 422kts
28-Aug-18 10:51 44.676473 -117.657162 148 24271ft 414kts
28-Aug-18 10:52 44.578499 -117.571580 148 23076ft 409kts
28-Aug-18 10:53 44.483314 -117.487764 148 21872ft 399kts
28-Aug-18 10:54 44.389803 -117.405570 149 20676ft 394kts
28-Aug-18 10:55 44.301843 -117.327895 149 19510ft 350kts
28-Aug-18 10:56 44.217873 -117.250188 143 18194ft 347kts
28-Aug-18 10:57 44.149759 -117.166805 138 16546ft 315kts
28-Aug-18 10:58 44.086776 -117.084898 137 14991ft 306kts
28-Aug-18 10:59 44.024289 -117.003419 137 13493ft 308kts
28-Aug-18 11:00 43.965891 -116.917750 128 12491ft 299kts
28-Aug-18 11:01 43.917635 -116.824590 124 11790ft 295kts
28-Aug-18 11:02 43.871680 -116.730726 124 11081ft 294kts
28-Aug-18 11:03 43.823800 -116.645601 136 10152ft 265kts
28-Aug-18 11:04 43.768217 -116.580217 141 9054ft 261kts
28-Aug-18 11:05 43.710631 -116.518501 142 7954ft 261kts
28-Aug-18 11:06 43.656280 -116.459188 138 6395ft 240kts
28-Aug-18 11:07 43.618181 -116.388875 117 5069ft 218kts
28-Aug-18 11:08 43.599632 -116.330796 113 4150ft 137kts
28-Aug-18 11:09 43.585210 -116.287874 114 3627ft 123kts
28-Aug-18 11:10 43.571089 -116.245820 114 2954ft 114kts
28-Aug-18 11:11 43.564367 -116.226005 115 2875ft 24kts
28-Aug-18 11:12 43.563332 -116.227024 293 2875ft 14kts
28-Aug-18 11:13 43.565186 -116.233013 258 2875ft 14kts
28-Aug-18 11:14 43.563886 -116.237074 228 2875ft 9kts
28-Aug-18 11:15 43.563639 -116.239435 176 2875ft 0kts

Navigation Log

Ident Type
Flight plan parsing failed, navigation log unavailable